Time;durP1;ratioP1;P1;durP2;ratioP2;P2;SDS_P1;SDS_P2;PMS_P1;PMS_P2;Temp;Humidity;BMP_temperature;BMP_pressure;BME280_temperature;BME280_humidity;BME280_pressure;Samples;Min_cycle;Max_cycle;Signal;HPM_P1;HPM_P2
2023/03/08 00:01:25;;;;;;;;;;;;;;;3.57;71.83;95468.19;4999805;28;19961;-72
2023/03/08 00:03:54;;;;;;;;;;;;;;;3.55;72.47;95464.28;5003180;28;20035;-71
2023/03/08 00:06:20;;;;;;;;;;;;;;;3.56;71.48;95465.84;4998832;28;20326;-71
2023/03/08 00:08:47;;;;;;;;;;;;;;;3.48;72.44;95469.53;5003912;28;19921;-71
2023/03/08 00:11:12;;;;;;;;;;;;;;;3.51;72.24;95456.06;4996870;28;19984;-71
2023/03/08 00:13:38;;;;;;;;;;;;;;;3.56;71.94;95455.78;5005240;28;20322;-71
2023/03/08 00:16:05;;;;;;;;;;;;;;;3.41;72.02;95460.09;5002210;28;19929;-72
2023/03/08 00:18:30;;;;;;;;;;;;;;;3.41;72.79;95467.44;5003626;28;19957;-72
2023/03/08 00:21:22;;;;;;;;;;;;;;;3.45;72.62;95465.59;5001168;28;19963;-71
2023/03/08 00:23:50;;;;;;;;;;;;;;;3.37;72.70;95464.63;5000801;28;20392;-72
2023/03/08 00:26:15;;;;;;;;;;;;;;;3.34;73.45;95472.66;4996483;28;20020;-71
2023/03/08 00:28:40;;;;;;;;;;;;;;;3.26;73.68;95471.72;5003908;28;20359;-71
2023/03/08 00:31:07;;;;;;;;;;;;;;;3.28;73.48;95482.97;4998944;28;19963;-70
2023/03/08 00:33:33;;;;;;;;;;;;;;;3.29;73.62;95484.53;5003161;28;19917;-72
2023/03/08 00:35:59;;;;;;;;;;;;;;;3.39;73.18;95484.00;5002520;28;19967;-69
2023/03/08 00:38:25;;;;;;;;;;;;;;;3.34;73.39;95491.59;4998926;28;20016;-70
2023/03/08 00:40:50;;;;;;;;;;;;;;;3.33;73.09;95492.72;5004366;28;19968;-70
2023/03/08 00:43:15;;;;;;;;;;;;;;;3.34;73.93;95486.19;4999294;28;20270;-71
2023/03/08 00:45:41;;;;;;;;;;;;;;;3.32;73.24;95473.00;5001417;28;20024;-70
2023/03/08 00:48:06;;;;;;;;;;;;;;;3.29;73.16;95484.53;4997763;28;19926;-70
2023/03/08 00:50:31;;;;;;;;;;;;;;;3.44;72.68;95469.44;5003538;28;19925;-70
2023/03/08 00:52:56;;;;;;;;;;;;;;;3.31;73.55;95457.91;5005235;28;20007;-70
2023/03/08 00:55:22;;;;;;;;;;;;;;;3.41;72.58;95470.91;4999242;28;20224;-69
2023/03/08 00:57:47;;;;;;;;;;;;;;;3.47;72.89;95457.88;5010394;28;20424;-70
2023/03/08 01:00:13;;;;;;;;;;;;;;;3.44;72.50;95470.22;5011253;28;19917;-71
2023/03/08 01:02:39;;;;;;;;;;;;;;;3.50;72.19;95461.84;5004795;28;19917;-71
2023/03/08 01:05:05;;;;;;;;;;;;;;;3.55;72.42;95456.94;4998346;28;20289;-69
2023/03/08 01:07:31;;;;;;;;;;;;;;;3.36;72.48;95454.16;5002288;28;19922;-70
2023/03/08 01:09:56;;;;;;;;;;;;;;;3.49;72.24;95447.50;5003175;28;19929;-69
2023/03/08 01:12:22;;;;;;;;;;;;;;;3.49;72.02;95450.19;4999013;28;19983;-71
2023/03/08 01:14:47;;;;;;;;;;;;;;;3.48;72.23;95442.47;5004627;28;19967;-72
2023/03/08 01:17:13;;;;;;;;;;;;;;;3.39;72.13;95435.28;4996854;28;20012;-72
2023/03/08 01:19:38;;;;;;;;;;;;;;;3.48;70.84;95424.28;5001286;28;19921;-71
2023/03/08 01:22:03;;;;;;;;;;;;;;;3.47;71.38;95421.91;5003599;28;20268;-73
2023/03/08 01:24:29;;;;;;;;;;;;;;;3.56;70.98;95423.28;5006157;28;19917;-73
2023/03/08 01:26:57;;;;;;;;;;;;;;;3.53;71.56;95423.22;5003783;28;19922;-71
2023/03/08 01:29:22;;;;;;;;;;;;;;;3.62;71.84;95421.13;4996094;28;20526;-71
2023/03/08 01:31:48;;;;;;;;;;;;;;;3.48;72.18;95416.16;5002751;28;20365;-72
2023/03/08 01:34:13;;;;;;;;;;;;;;;3.55;71.81;95408.19;4997703;28;19917;-72
2023/03/08 01:36:38;;;;;;;;;;;;;;;3.61;72.33;95400.59;5000338;28;19922;-73
2023/03/08 01:39:04;;;;;;;;;;;;;;;3.68;72.05;95397.25;5006546;28;19941;-73
2023/03/08 01:41:30;;;;;;;;;;;;;;;3.59;72.70;95387.41;5004097;28;19924;-72
2023/03/08 01:43:55;;;;;;;;;;;;;;;3.65;73.18;95382.50;5002995;28;19922;-73
2023/03/08 01:46:23;;;;;;;;;;;;;;;3.68;73.61;95373.66;4999053;28;22213;-71
2023/03/08 01:49:04;;;;;;;;;;;;;;;3.60;73.78;95363.81;5007580;28;19921;-71
2023/03/08 01:51:32;;;;;;;;;;;;;;;3.69;73.66;95363.63;5006627;28;19988;-71
2023/03/08 01:53:59;;;;;;;;;;;;;;;3.79;73.16;95347.59;4984519;28;19921;-72
2023/03/08 01:56:25;;;;;;;;;;;;;;;3.73;73.76;95337.41;4997246;28;19925;-70
2023/03/08 01:58:51;;;;;;;;;;;;;;;3.66;73.16;95340.75;5002732;28;19918;-70
2023/03/08 02:01:17;;;;;;;;;;;;;;;3.59;73.79;95337.88;4996873;28;19986;-72
2023/03/08 02:03:44;;;;;;;;;;;;;;;3.69;72.51;95333.81;5000885;28;19929;-72
2023/03/08 02:06:09;;;;;;;;;;;;;;;3.63;72.74;95336.03;4995927;28;19925;-72
2023/03/08 02:08:35;;;;;;;;;;;;;;;3.65;73.13;95331.03;5001707;28;19921;-72
2023/03/08 02:11:00;;;;;;;;;;;;;;;3.63;73.71;95325.19;5005407;28;19932;-71
2023/03/08 02:13:26;;;;;;;;;;;;;;;3.78;73.17;95327.06;5000845;28;20337;-72
2023/03/08 02:15:54;;;;;;;;;;;;;;;3.65;73.43;95322.91;5004714;28;20374;-71
2023/03/08 02:18:19;;;;;;;;;;;;;;;3.62;73.93;95320.94;5000933;28;19929;-73
2023/03/08 02:20:44;;;;;;;;;;;;;;;3.55;74.46;95316.16;5004507;28;19918;-72
2023/03/08 02:23:11;;;;;;;;;;;;;;;3.58;74.82;95315.44;5008898;28;19964;-73
2023/03/08 02:25:37;;;;;;;;;;;;;;;3.68;74.30;95314.09;5013300;28;19972;-72
2023/03/08 02:28:02;;;;;;;;;;;;;;;3.51;74.37;95303.66;5003760;28;19953;-71
2023/03/08 02:30:36;;;;;;;;;;;;;;;3.45;74.73;95289.63;5003988;28;20016;-70
2023/03/08 02:33:01;;;;;;;;;;;;;;;3.52;74.71;95302.53;5014215;28;19923;-71
2023/03/08 02:35:27;;;;;;;;;;;;;;;3.43;74.66;95298.09;5016604;28;19964;-71
2023/03/08 02:37:52;;;;;;;;;;;;;;;3.31;75.09;95300.94;5005443;28;19925;-71
2023/03/08 02:40:18;;;;;;;;;;;;;;;3.24;75.27;95296.19;4999470;28;19922;-71
2023/03/08 02:42:43;;;;;;;;;;;;;;;3.24;75.48;95298.06;5004842;28;19918;-71
2023/03/08 02:45:08;;;;;;;;;;;;;;;3.37;75.68;95298.75;5000871;28;19922;-71
2023/03/08 02:47:34;;;;;;;;;;;;;;;3.38;75.38;95294.91;5004452;28;20304;-70
2023/03/08 02:49:59;;;;;;;;;;;;;;;3.40;75.59;95298.84;5005335;28;19928;-71
2023/03/08 02:52:24;;;;;;;;;;;;;;;3.66;74.34;95293.94;4999300;28;19970;-70
2023/03/08 02:54:50;;;;;;;;;;;;;;;3.58;74.79;95293.78;5004738;28;19924;-71
2023/03/08 02:57:15;;;;;;;;;;;;;;;3.59;75.32;95287.22;5000913;28;19924;-71
2023/03/08 02:59:40;;;;;;;;;;;;;;;3.65;75.33;95276.88;5005596;28;20016;-71
2023/03/08 03:02:05;;;;;;;;;;;;;;;3.82;74.55;95278.41;4999930;28;19921;-71
2023/03/08 03:04:32;;;;;;;;;;;;;;;3.75;75.08;95273.63;5004609;28;19932;-70
2023/03/08 03:06:57;;;;;;;;;;;;;;;3.70;75.90;95279.31;5004706;28;20242;-72
2023/03/08 03:09:23;;;;;;;;;;;;;;;3.65;76.55;95274.19;5000281;28;20479;-72
2023/03/08 03:11:48;;;;;;;;;;;;;;;3.69;76.62;95263.41;5005005;28;19918;-71
2023/03/08 03:14:14;;;;;;;;;;;;;;;3.66;76.65;95270.34;4999472;28;20389;-73
2023/03/08 03:16:39;;;;;;;;;;;;;;;3.58;77.34;95265.91;5017016;28;19924;-75
2023/03/08 03:19:05;;;;;;;;;;;;;;;3.59;77.61;95254.72;5004757;28;20333;-72
2023/03/08 03:21:30;;;;;;;;;;;;;;;3.61;77.48;95238.91;5009426;28;20290;-73
2023/03/08 03:23:55;;;;;;;;;;;;;;;3.56;77.38;95238.41;5017529;28;19952;-72
2023/03/08 03:26:22;;;;;;;;;;;;;;;3.44;78.07;95232.03;5013355;28;20132;-72
2023/03/08 03:28:47;;;;;;;;;;;;;;;3.30;78.22;95223.63;5004494;28;19925;-72
2023/03/08 03:31:14;;;;;;;;;;;;;;;3.13;79.74;95224.00;5001428;28;19928;-74
2023/03/08 03:33:39;;;;;;;;;;;;;;;3.03;80.58;95220.72;5003754;28;19925;-71
2023/03/08 03:36:05;;;;;;;;;;;;;;;2.96;81.07;95211.69;4996466;28;20390;-72
2023/03/08 03:38:31;;;;;;;;;;;;;;;2.89;80.90;95204.19;5001765;28;19922;-71
2023/03/08 03:41:03;;;;;;;;;;;;;;;2.80;82.25;95195.50;5005674;28;20282;-71
2023/03/08 03:43:29;;;;;;;;;;;;;;;2.82;82.54;95198.63;5004690;28;19975;-71
2023/03/08 03:45:58;;;;;;;;;;;;;;;2.82;83.39;95191.28;5004044;28;19921;-73
2023/03/08 03:48:23;;;;;;;;;;;;;;;2.81;83.18;95188.94;5000785;28;20394;-71
2023/03/08 03:51:00;;;;;;;;;;;;;;;2.90;83.67;95180.63;5003110;28;20437;-71
2023/03/08 03:53:26;;;;;;;;;;;;;;;2.88;83.38;95172.88;4997983;28;20401;-73
2023/03/08 03:55:51;;;;;;;;;;;;;;;2.85;83.31;95166.25;5003985;28;19947;-71
2023/03/08 03:58:17;;;;;;;;;;;;;;;2.67;83.75;95160.47;5003660;28;20448;-72
2023/03/08 04:00:43;;;;;;;;;;;;;;;2.32;86.22;95159.66;5008086;28;19925;-72
2023/03/08 04:03:08;;;;;;;;;;;;;;;2.19;86.69;95162.47;4997831;28;19968;-71
2023/03/08 04:05:33;;;;;;;;;;;;;;;2.06;87.71;95167.19;5005130;28;19976;-72
2023/03/08 04:07:59;;;;;;;;;;;;;;;2.06;88.32;95156.38;4986333;28;19936;-71
2023/03/08 04:10:24;;;;;;;;;;;;;;;2.15;87.83;95158.91;4997046;28;19928;-72
2023/03/08 04:12:50;;;;;;;;;;;;;;;2.27;88.64;95158.03;5002400;28;20015;-71
2023/03/08 04:15:15;;;;;;;;;;;;;;;2.39;87.37;95159.84;4997518;28;20012;-70
2023/03/08 04:17:43;;;;;;;;;;;;;;;2.45;88.15;95150.34;5002425;28;19918;-72
2023/03/08 04:20:09;;;;;;;;;;;;;;;2.51;87.08;95145.44;4996616;28;20366;-70
2023/03/08 04:22:36;;;;;;;;;;;;;;;2.58;86.97;95143.66;5004977;28;20012;-72
2023/03/08 04:25:02;;;;;;;;;;;;;;;2.56;86.36;95145.16;5002437;28;19963;-71
2023/03/08 04:27:28;;;;;;;;;;;;;;;2.54;86.44;95126.59;5006116;28;20013;-72
2023/03/08 04:29:54;;;;;;;;;;;;;;;2.39;86.74;95122.00;5015480;28;19943;-71
2023/03/08 04:32:20;;;;;;;;;;;;;;;2.35;87.14;95118.44;5004795;28;20058;-70
2023/03/08 04:34:45;;;;;;;;;;;;;;;2.48;87.55;95118.00;5000925;28;19928;-71
2023/03/08 04:37:11;;;;;;;;;;;;;;;2.47;87.23;95126.44;5004566;28;19929;-71
2023/03/08 04:39:36;;;;;;;;;;;;;;;2.45;87.57;95117.91;5004156;28;19917;-72
2023/03/08 04:42:01;;;;;;;;;;;;;;;2.41;87.20;95117.84;5002653;28;19921;-72
2023/03/08 04:44:27;;;;;;;;;;;;;;;2.37;87.09;95113.47;4999112;28;19917;-72
2023/03/08 04:46:52;;;;;;;;;;;;;;;2.39;87.98;95122.00;5005034;28;19917;-72
2023/03/08 04:49:17;;;;;;;;;;;;;;;2.35;87.96;95116.53;4997516;28;20008;-72
2023/03/08 04:51:43;;;;;;;;;;;;;;;2.36;88.25;95111.91;5004020;28;19917;-70
2023/03/08 04:54:08;;;;;;;;;;;;;;;2.35;88.93;95107.63;4996505;28;19992;-71
2023/03/08 04:56:33;;;;;;;;;;;;;;;2.36;88.66;95101.88;5002981;28;19924;-69
2023/03/08 04:58:59;;;;;;;;;;;;;;;2.40;88.86;95091.94;5000322;28;19917;-71
2023/03/08 05:01:24;;;;;;;;;;;;;;;2.40;88.98;95088.47;4995195;28;19921;-71
2023/03/08 05:03:51;;;;;;;;;;;;;;;2.36;89.23;95091.09;5002674;28;20379;-72
2023/03/08 05:06:17;;;;;;;;;;;;;;;2.29;89.85;95090.91;4999400;28;20441;-71
2023/03/08 05:08:42;;;;;;;;;;;;;;;2.16;90.93;95089.44;5002046;28;19933;-73
2023/03/08 05:11:08;;;;;;;;;;;;;;;2.13;90.84;95085.56;4998625;28;19928;-72
2023/03/08 05:13:37;;;;;;;;;;;;;;;2.20;91.30;95090.34;5003751;28;20297;-71
2023/03/08 05:16:03;;;;;;;;;;;;;;;2.20;90.70;95095.75;5002822;28;20037;-73
2023/03/08 05:18:29;;;;;;;;;;;;;;;2.31;91.63;95096.75;5003271;28;19981;-73
2023/03/08 05:21:02;;;;;;;;;;;;;;;2.33;91.36;95099.88;5003945;28;19960;-72
2023/03/08 05:23:28;;;;;;;;;;;;;;;2.33;90.80;95099.88;5002632;28;19933;-74
2023/03/08 05:25:54;;;;;;;;;;;;;;;2.34;91.38;95096.06;5004594;28;19921;-73
2023/03/08 05:28:20;;;;;;;;;;;;;;;2.22;91.72;95091.53;5000510;28;19976;-72
2023/03/08 05:30:45;;;;;;;;;;;;;;;2.02;92.71;95089.94;4986089;28;19968;-71
2023/03/08 05:33:11;;;;;;;;;;;;;;;1.93;94.33;95092.81;4997593;28;19917;-72
2023/03/08 05:35:36;;;;;;;;;;;;;;;2.03;94.24;95099.59;5002016;28;20385;-71
2023/03/08 05:38:01;;;;;;;;;;;;;;;2.10;94.28;95089.72;5001529;28;19918;-71
2023/03/08 05:40:27;;;;;;;;;;;;;;;1.91;95.05;95085.06;4996925;28;19918;-72
2023/03/08 05:42:53;;;;;;;;;;;;;;;1.82;95.57;95081.75;5003592;28;19948;-72
2023/03/08 05:45:18;;;;;;;;;;;;;;;1.78;96.12;95077.41;5004369;28;19917;-72
2023/03/08 05:47:44;;;;;;;;;;;;;;;1.61;97.08;95073.16;5008952;28;19926;-72
2023/03/08 05:50:10;;;;;;;;;;;;;;;1.62;98.11;95064.72;5011512;28;19928;-74
2023/03/08 05:52:36;;;;;;;;;;;;;;;1.71;99.15;95057.22;5013303;28;20279;-72
2023/03/08 05:55:01;;;;;;;;;;;;;;;1.75;99.02;95049.19;5006306;28;20378;-71
2023/03/08 05:57:27;;;;;;;;;;;;;;;1.74;98.29;95047.63;4999789;28;19917;-71
2023/03/08 05:59:52;;;;;;;;;;;;;;;1.75;98.15;95056.50;5006452;28;19922;-73
2023/03/08 06:02:17;;;;;;;;;;;;;;;1.83;98.32;95060.94;5000088;28;19928;-72
2023/03/08 06:04:43;;;;;;;;;;;;;;;1.86;98.38;95057.53;5009936;28;19969;-74
2023/03/08 06:07:08;;;;;;;;;;;;;;;1.80;98.20;95058.94;5005444;28;19948;-73
2023/03/08 06:09:33;;;;;;;;;;;;;;;1.97;98.41;95063.19;5006592;28;19921;-73
2023/03/08 06:11:59;;;;;;;;;;;;;;;2.03;97.66;95065.25;5007791;28;19918;-73
2023/03/08 06:14:24;;;;;;;;;;;;;;;2.05;99.13;95060.31;5001611;28;19922;-73
2023/03/08 06:16:49;;;;;;;;;;;;;;;2.15;98.41;95055.50;5006181;28;19918;-74
2023/03/08 06:19:14;;;;;;;;;;;;;;;2.15;98.44;95044.69;5003800;28;19924;-72
2023/03/08 06:21:40;;;;;;;;;;;;;;;2.15;98.60;95040.06;5007954;28;19921;-73
2023/03/08 06:24:05;;;;;;;;;;;;;;;2.04;99.30;95031.72;4985669;28;19921;-72
2023/03/08 06:26:31;;;;;;;;;;;;;;;2.04;99.58;95039.06;5004080;28;20260;-71
2023/03/08 06:28:56;;;;;;;;;;;;;;;2.14;99.49;95037.72;5005843;28;20028;-70
2023/03/08 06:31:21;;;;;;;;;;;;;;;2.28;98.82;95051.53;5003565;28;20418;-71
2023/03/08 06:33:47;;;;;;;;;;;;;;;2.42;98.96;95046.41;5008643;28;19928;-71
2023/03/08 06:36:13;;;;;;;;;;;;;;;2.60;98.25;95046.78;5003403;28;19917;-72
2023/03/08 06:38:39;;;;;;;;;;;;;;;2.66;96.42;95036.47;5008640;28;20310;-70
2023/03/08 06:41:05;;;;;;;;;;;;;;;2.55;95.77;95041.66;5005015;28;20350;-72
2023/03/08 06:43:31;;;;;;;;;;;;;;;2.65;96.05;95038.41;5003068;28;20019;-71
2023/03/08 06:45:56;;;;;;;;;;;;;;;2.68;95.91;95029.59;5008687;28;20710;-71
2023/03/08 06:48:22;;;;;;;;;;;;;;;2.60;96.81;95019.75;5003663;28;19939;-71
2023/03/08 06:50:47;;;;;;;;;;;;;;;2.65;96.52;95016.78;5010327;28;19926;-72
2023/03/08 06:53:13;;;;;;;;;;;;;;;2.79;95.60;95029.00;5001501;28;19983;-72
2023/03/08 06:55:39;;;;;;;;;;;;;;;2.91;94.95;95031.53;5002934;28;19917;-71
2023/03/08 06:58:04;;;;;;;;;;;;;;;3.09;94.55;95023.75;5000305;28;20345;-71
2023/03/08 07:00:30;;;;;;;;;;;;;;;3.57;91.97;95029.63;5007088;28;19940;-71
2023/03/08 07:02:56;;;;;;;;;;;;;;;3.89;89.93;95018.50;5006770;28;20302;-71
2023/03/08 07:05:21;;;;;;;;;;;;;;;4.12;88.55;95014.94;5003382;28;20408;-69
2023/03/08 07:07:47;;;;;;;;;;;;;;;4.09;89.18;95000.22;5004954;28;19928;-71
2023/03/08 07:10:13;;;;;;;;;;;;;;;4.31;90.21;94989.66;5001205;28;20333;-72
2023/03/08 07:12:42;;;;;;;;;;;;;;;4.37;90.44;94977.34;5008254;28;19921;-71
2023/03/08 07:15:08;;;;;;;;;;;;;;;4.41;91.51;94972.72;5001908;28;19917;-72
2023/03/08 07:17:34;;;;;;;;;;;;;;;4.59;93.10;94983.78;5003405;28;20238;-72
2023/03/08 07:20:00;;;;;;;;;;;;;;;4.53;94.29;94969.78;5005509;28;19996;-73
2023/03/08 07:22:25;;;;;;;;;;;;;;;4.55;95.37;94964.00;5002112;28;20009;-74
2023/03/08 07:24:51;;;;;;;;;;;;;;;4.62;96.45;94955.16;5005521;28;19917;-74
2023/03/08 07:27:16;;;;;;;;;;;;;;;4.76;94.99;94971.59;4999885;28;19921;-72
2023/03/08 07:29:41;;;;;;;;;;;;;;;4.96;93.23;94983.03;5004001;28;19917;-71
2023/03/08 07:32:07;;;;;;;;;;;;;;;4.89;94.61;94994.59;4999108;28;19921;-72
2023/03/08 07:34:32;;;;;;;;;;;;;;;5.12;93.20;94990.97;5008121;28;20196;-73
2023/03/08 07:36:57;;;;;;;;;;;;;;;5.37;90.47;94983.06;5010079;28;19973;-72
2023/03/08 07:39:22;;;;;;;;;;;;;;;5.33;91.51;94977.59;5003721;28;20085;-73
2023/03/08 07:41:49;;;;;;;;;;;;;;;5.50;89.48;94967.25;5005821;28;19928;-72
2023/03/08 07:44:14;;;;;;;;;;;;;;;5.71;87.96;94967.41;5006370;28;20016;-71
2023/03/08 07:46:40;;;;;;;;;;;;;;;5.64;85.91;94970.06;5005685;28;20032;-75
2023/03/08 07:49:09;;;;;;;;;;;;;;;5.67;86.10;94979.41;5000054;28;20406;-72
2023/03/08 07:51:34;;;;;;;;;;;;;;;5.41;88.34;94966.78;5007988;28;20063;-72
2023/03/08 07:54:00;;;;;;;;;;;;;;;5.73;86.71;94953.47;5007227;28;19968;-73
2023/03/08 07:56:25;;;;;;;;;;;;;;;5.88;86.39;94949.66;4997435;28;19925;-70
2023/03/08 07:58:50;;;;;;;;;;;;;;;5.92;85.68;94957.84;5006034;28;19987;-71
2023/03/08 08:01:15;;;;;;;;;;;;;;;5.82;86.55;94955.84;4999699;28;19926;-71
2023/03/08 08:03:41;;;;;;;;;;;;;;;5.73;87.84;94948.78;5004963;28;20337;-71
2023/03/08 08:06:06;;;;;;;;;;;;;;;5.60;87.45;94936.69;4999287;28;19949;-71
2023/03/08 08:08:32;;;;;;;;;;;;;;;5.51;86.80;94923.44;5002648;28;20489;-71
2023/03/08 08:10:57;;;;;;;;;;;;;;;5.27;86.20;94930.22;5003173;28;19922;-73
2023/03/08 08:13:23;;;;;;;;;;;;;;;5.38;87.35;94945.81;4998879;28;19917;-72
2023/03/08 08:16:01;;;;;;;;;;;;;;;5.25;87.18;94948.81;5007510;28;19972;-72
2023/03/08 08:18:27;;;;;;;;;;;;;;;5.09;89.28;94964.56;5013686;28;19976;-72
2023/03/08 08:21:03;;;;;;;;;;;;;;;5.21;88.21;94969.72;5004608;28;19922;-71
2023/03/08 08:23:29;;;;;;;;;;;;;;;5.35;87.26;94947.34;5004825;28;19940;-72
2023/03/08 08:25:54;;;;;;;;;;;;;;;5.30;87.32;94939.56;5006753;28;20024;-72
2023/03/08 08:28:22;;;;;;;;;;;;;;;5.23;88.42;94937.56;5001753;28;19921;-72
2023/03/08 08:30:54;;;;;;;;;;;;;;;5.34;89.45;94956.66;5005222;28;20011;-70
2023/03/08 08:33:20;;;;;;;;;;;;;;;5.34;89.90;94951.97;5000585;28;19924;-71
2023/03/08 08:35:45;;;;;;;;;;;;;;;5.24;90.97;94943.75;5005095;28;19949;-71
2023/03/08 08:38:11;;;;;;;;;;;;;;;5.36;90.06;94946.19;5000162;28;20006;-72
2023/03/08 08:40:36;;;;;;;;;;;;;;;5.36;88.89;94938.03;5005808;28;20355;-75
2023/03/08 08:43:01;;;;;;;;;;;;;;;5.14;88.18;94954.13;5004814;28;20005;-72
2023/03/08 08:45:26;;;;;;;;;;;;;;;5.26;85.82;94944.19;4999913;28;20394;-73
2023/03/08 08:47:52;;;;;;;;;;;;;;;5.35;85.51;94937.25;5004651;28;19922;-72
2023/03/08 08:50:17;;;;;;;;;;;;;;;5.29;85.15;94943.41;4998079;28;19931;-72
2023/03/08 08:52:42;;;;;;;;;;;;;;;5.16;85.21;94943.69;5001176;28;20369;-70
2023/03/08 08:55:08;;;;;;;;;;;;;;;5.27;84.27;94948.44;5000249;28;19963;-70
2023/03/08 08:57:33;;;;;;;;;;;;;;;5.31;83.61;94939.19;5001459;28;19968;-70
2023/03/08 08:59:59;;;;;;;;;;;;;;;5.11;82.59;94937.81;5003800;28;19984;-71
2023/03/08 09:02:24;;;;;;;;;;;;;;;5.04;82.66;94944.00;4992448;28;19926;-70
2023/03/08 09:04:49;;;;;;;;;;;;;;;5.02;82.52;94937.34;5005347;28;20012;-69
2023/03/08 09:07:14;;;;;;;;;;;;;;;5.16;81.10;94938.25;5000103;28;20363;-70
2023/03/08 09:09:40;;;;;;;;;;;;;;;5.24;79.83;94927.47;5004235;28;19967;-70
2023/03/08 09:12:05;;;;;;;;;;;;;;;5.47;79.73;94916.41;5013036;28;19921;-70
2023/03/08 09:14:30;;;;;;;;;;;;;;;5.41;78.60;94907.06;5027938;28;19928;-71
2023/03/08 09:16:56;;;;;;;;;;;;;;;5.38;79.12;94927.56;5027577;28;19917;-70
2023/03/08 09:19:21;;;;;;;;;;;;;;;5.36;79.45;94924.47;5024250;28;20249;-70
2023/03/08 09:21:46;;;;;;;;;;;;;;;5.51;78.37;94928.06;5031217;28;20293;-70
2023/03/08 09:24:12;;;;;;;;;;;;;;;5.64;77.51;94942.91;5024045;28;19918;-69
2023/03/08 09:26:37;;;;;;;;;;;;;;;5.60;78.64;94938.59;5029310;28;19975;-70
2023/03/08 09:29:06;;;;;;;;;;;;;;;5.86;77.26;94951.22;5027277;28;19928;-69
2023/03/08 09:31:32;;;;;;;;;;;;;;;5.97;76.92;94935.00;5026200;28;19967;-70
2023/03/08 09:33:58;;;;;;;;;;;;;;;5.89;77.33;94926.78;5025792;28;19960;-71
2023/03/08 09:36:24;;;;;;;;;;;;;;;5.81;77.66;94917.00;5020303;28;20654;-71
2023/03/08 09:38:50;;;;;;;;;;;;;;;5.89;78.73;94915.13;5028117;28;19971;-71
2023/03/08 09:41:24;;;;;;;;;;;;;;;5.99;78.46;94917.16;5024031;28;19921;-70
2023/03/08 09:44:12;;;;;;;;;;;;;;;6.17;76.66;94905.59;5029661;28;19924;-70
2023/03/08 09:46:45;;;;;;;;;;;;;;;6.25;74.99;94910.69;5026891;28;19928;-71
2023/03/08 09:49:17;;;;;;;;;;;;;;;6.40;74.14;94910.72;5006307;28;19928;-71
2023/03/08 09:51:44;;;;;;;;;;;;;;;6.59;72.64;94921.28;5027051;28;19963;-70
2023/03/08 09:54:13;;;;;;;;;;;;;;;6.38;72.76;94913.84;5023237;28;19976;-73
2023/03/08 09:56:41;;;;;;;;;;;;;;;6.26;73.08;94911.44;5012217;28;19989;-74
2023/03/08 09:59:11;;;;;;;;;;;;;;;6.72;71.28;94910.84;5001406;28;19928;-72
2023/03/08 10:01:40;;;;;;;;;;;;;;;6.93;69.50;94901.16;5006295;28;19921;-71
2023/03/08 10:04:25;;;;;;;;;;;;;;;6.92;69.30;94905.03;5003404;28;19921;-71
2023/03/08 10:07:02;;;;;;;;;;;;;;;7.10;67.99;94905.06;5014239;28;19924;-72
2023/03/08 10:09:28;;;;;;;;;;;;;;;6.90;68.13;94908.16;5014363;28;19922;-71
2023/03/08 10:11:59;;;;;;;;;;;;;;;6.84;69.44;94898.78;5020217;28;19918;-72
2023/03/08 10:14:31;;;;;;;;;;;;;;;6.89;69.58;94898.41;5005574;28;19914;-71
2023/03/08 10:17:03;;;;;;;;;;;;;;;6.86;69.28;94908.13;5006395;28;20374;-72
2023/03/08 10:19:31;;;;;;;;;;;;;;;6.91;69.25;94903.47;5004727;28;19929;-71
2023/03/08 10:22:01;;;;;;;;;;;;;;;6.94;70.28;94908.16;5005705;28;19940;-72
2023/03/08 10:24:35;;;;;;;;;;;;;;;6.88;71.94;94913.97;5003129;28;20792;-70
2023/03/08 10:27:05;;;;;;;;;;;;;;;6.96;73.65;94916.72;5006299;28;19944;-72
2023/03/08 10:29:31;;;;;;;;;;;;;;;6.88;73.45;94921.38;5006966;28;20016;-72
2023/03/08 10:31:56;;;;;;;;;;;;;;;6.95;73.42;94926.03;5009450;28;19961;-71
2023/03/08 10:34:27;;;;;;;;;;;;;;;6.94;72.53;94927.97;5005176;28;19925;-71
2023/03/08 10:37:00;;;;;;;;;;;;;;;6.97;72.85;94931.84;5009230;28;20382;-71
2023/03/08 10:39:26;;;;;;;;;;;;;;;7.08;72.06;94924.50;5004430;28;19917;-72
2023/03/08 10:41:53;;;;;;;;;;;;;;;6.79;72.10;94943.50;5018539;28;19924;-71
2023/03/08 10:44:35;;;;;;;;;;;;;;;7.03;71.00;94936.53;5019788;28;20016;-71
2023/03/08 10:47:02;;;;;;;;;;;;;;;7.05;71.99;94915.16;5006131;28;19918;-72
2023/03/08 10:49:27;;;;;;;;;;;;;;;7.08;72.03;94921.78;5004586;28;19921;-72
2023/03/08 10:52:00;;;;;;;;;;;;;;;7.40;71.10;94904.66;5007043;28;19918;-73
2023/03/08 10:54:26;;;;;;;;;;;;;;;7.42;72.63;94922.19;5001868;28;19972;-72
2023/03/08 10:56:52;;;;;;;;;;;;;;;7.06;74.32;94915.94;5003220;28;19918;-71
2023/03/08 10:59:20;;;;;;;;;;;;;;;7.05;75.71;94926.03;5001569;28;19926;-73
2023/03/08 11:01:51;;;;;;;;;;;;;;;7.23;75.30;94900.78;5005963;28;19968;-72
2023/03/08 11:04:17;;;;;;;;;;;;;;;7.36;75.71;94914.78;5000549;28;19921;-73
2023/03/08 11:06:43;;;;;;;;;;;;;;;7.45;75.58;94924.16;5006042;28;20302;-72
2023/03/08 11:09:26;;;;;;;;;;;;;;;7.58;75.94;94931.91;5001123;28;19928;-71
2023/03/08 11:11:52;;;;;;;;;;;;;;;7.64;76.09;94917.50;5006273;28;19921;-72
2023/03/08 11:14:18;;;;;;;;;;;;;;;7.79;75.27;94931.88;5001854;28;19967;-72
2023/03/08 11:16:43;;;;;;;;;;;;;;;7.66;76.13;94922.56;5007113;28;19923;-71
2023/03/08 11:19:12;;;;;;;;;;;;;;;7.43;77.72;94925.69;5003444;28;19918;-72
2023/03/08 11:21:43;;;;;;;;;;;;;;;7.57;78.40;94933.09;5005554;28;20092;-71
2023/03/08 11:24:27;;;;;;;;;;;;;;;7.74;79.68;94928.78;5002239;28;20079;-72
2023/03/08 11:27:28;;;;;;;;;;;;;;;8.08;78.81;94931.06;5006900;28;20415;-72
2023/03/08 11:30:06;;;;;;;;;;;;;;;8.12;79.44;94932.63;4947515;28;20017;-72
2023/03/08 11:32:50;;;;;;;;;;;;;;;8.09;80.45;94910.81;5002023;28;19922;-72
2023/03/08 11:35:24;;;;;;;;;;;;;;;7.98;82.48;94916.28;5000712;28;19923;-73
2023/03/08 11:38:01;;;;;;;;;;;;;;;8.08;83.01;94920.91;5008209;28;19924;-72
2023/03/08 11:40:35;;;;;;;;;;;;;;;8.28;83.45;94917.75;5002133;28;19979;-71
2023/03/08 11:43:12;;;;;;;;;;;;;;;8.30;83.53;94916.19;5007463;28;19925;-71
2023/03/08 11:45:56;;;;;;;;;;;;;;;8.24;83.62;94918.53;5006565;28;19992;-72
2023/03/08 11:48:27;;;;;;;;;;;;;;;8.35;83.55;94918.50;5001860;28;20352;-72
2023/03/08 11:51:18;;;;;;;;;;;;;;;8.51;82.63;94915.34;5006569;28;19944;-72
2023/03/08 11:53:52;;;;;;;;;;;;;;;8.45;83.31;94924.34;5006758;28;19964;-72
2023/03/08 11:56:26;;;;;;;;;;;;;;;8.58;83.50;94928.97;4997880;28;20326;-71
2023/03/08 11:58:57;;;;;;;;;;;;;;;8.56;83.78;94914.16;5007208;28;19917;-71
2023/03/08 12:01:28;;;;;;;;;;;;;;;8.58;83.75;94914.53;5001303;28;19926;-72
2023/03/08 12:04:02;;;;;;;;;;;;;;;8.57;84.85;94912.97;5004598;28;20311;-72
2023/03/08 12:06:34;;;;;;;;;;;;;;;8.70;84.34;94913.34;5001760;28;19917;-71
2023/03/08 12:09:11;;;;;;;;;;;;;;;8.84;84.02;94917.91;5005718;28;19922;-71
2023/03/08 12:11:48;;;;;;;;;;;;;;;8.93;83.34;94920.97;5004517;28;19975;-72
2023/03/08 12:14:42;;;;;;;;;;;;;;;9.17;82.49;94927.47;5002827;28;19932;-71
2023/03/08 12:17:17;;;;;;;;;;;;;;;8.88;84.11;94910.50;4986089;28;19921;-71
2023/03/08 12:19:43;;;;;;;;;;;;;;;8.65;85.39;94898.13;5004265;28;20349;-71
2023/03/08 12:22:21;;;;;;;;;;;;;;;8.76;85.24;94907.03;5001230;28;19949;-71
2023/03/08 12:24:57;;;;;;;;;;;;;;;8.87;85.17;94911.66;5003862;28;19968;-71
2023/03/08 12:27:29;;;;;;;;;;;;;;;8.84;85.29;94918.72;4997821;28;20894;-71
2023/03/08 12:30:12;;;;;;;;;;;;;;;8.79;85.75;94913.66;5005972;28;19937;-71
2023/03/08 12:32:39;;;;;;;;;;;;;;;8.71;86.31;94909.41;5001941;28;19922;-71
2023/03/08 12:35:07;;;;;;;;;;;;;;;8.77;86.41;94905.09;4999722;28;19975;-72
2023/03/08 12:37:32;;;;;;;;;;;;;;;8.69;86.95;94918.00;5006042;28;19961;-72
2023/03/08 12:39:59;;;;;;;;;;;;;;;8.68;87.05;94911.00;5006193;28;19921;-70
2023/03/08 12:42:29;;;;;;;;;;;;;;;8.75;87.51;94915.63;4983505;28;19936;-71
2023/03/08 12:45:04;;;;;;;;;;;;;;;8.79;87.05;94911.72;5007024;28;19928;-72
2023/03/08 12:47:30;;;;;;;;;;;;;;;8.81;87.49;94911.31;5017242;28;19955;-71
2023/03/08 12:49:55;;;;;;;;;;;;;;;8.95;86.78;94905.78;5013637;28;20378;-71
2023/03/08 12:52:32;;;;;;;;;;;;;;;8.96;87.00;94903.81;5008846;28;20134;-72
2023/03/08 12:55:01;;;;;;;;;;;;;;;9.19;85.71;94906.75;5005776;28;19917;-72
2023/03/08 12:57:29;;;;;;;;;;;;;;;9.49;84.19;94905.38;4999124;28;20753;-72
2023/03/08 12:59:56;;;;;;;;;;;;;;;9.60;83.40;94908.03;5004451;28;19921;-72